createdAt,value
2019-05-13T00:02:27.052Z,81.81
2019-05-13T00:04:57.460Z,81.50
2019-05-13T00:07:27.804Z,80.65
2019-05-13T00:09:58.204Z,80.19
2019-05-13T00:12:47.944Z,80.40
2019-05-13T00:15:37.956Z,79.80
2019-05-13T00:18:08.293Z,79.79
2019-05-13T00:20:38.749Z,79.93
2019-05-13T00:23:09.117Z,80.21
2019-05-13T00:25:39.504Z,79.79
2019-05-13T00:28:10.015Z,79.65
2019-05-13T00:30:40.388Z,79.13
2019-05-13T00:33:10.737Z,78.85
2019-05-13T00:35:41.103Z,78.54
2019-05-13T00:38:13.904Z,78.66
2019-05-13T00:40:54.783Z,77.69
2019-05-13T00:43:25.112Z,78.40
2019-05-13T00:46:14.916Z,77.84
2019-05-13T00:48:45.352Z,77.85
2019-05-13T00:51:15.790Z,77.91
2019-05-13T00:53:46.145Z,78.47
2019-05-13T00:56:16.586Z,78.68
2019-05-13T00:59:06.385Z,79.19
2019-05-13T01:01:36.793Z,79.17
2019-05-13T01:04:26.539Z,79.32
2019-05-13T01:06:56.993Z,78.89
2019-05-13T01:09:47.005Z,79.35
2019-05-13T01:12:17.369Z,79.37
2019-05-13T01:17:53.502Z,79.22
2019-05-13T01:20:37.364Z,79.45
2019-05-13T01:23:09.510Z,79.86
2019-05-13T01:29:09.201Z,79.89
2019-05-13T01:31:58.936Z,79.57
2019-05-13T01:34:49.067Z,79.20
2019-05-13T01:37:42.445Z,79.47
2019-05-13T01:40:23.937Z,79.79
2019-05-13T01:43:05.934Z,80.63
2019-05-13T01:45:36.308Z,80.37
2019-05-13T01:48:26.059Z,80.21
2019-05-13T01:50:56.481Z,80.95
2019-05-13T01:53:26.879Z,80.60
2019-05-13T01:55:57.267Z,80.74
2019-05-13T01:58:27.728Z,80.25
2019-05-13T02:00:58.112Z,80.25
2019-05-13T02:03:28.471Z,79.78
2019-05-13T02:06:00.520Z,78.03
2019-05-13T02:08:50.300Z,77.09
2019-05-13T02:11:20.790Z,76.83
2019-05-13T02:13:53.766Z,76.28
2019-05-13T02:16:34.690Z,76.77
2019-05-13T02:19:24.653Z,76.89
2019-05-13T02:21:55.047Z,76.32
2019-05-13T02:24:44.913Z,76.77
2019-05-13T02:27:15.257Z,76.24
2019-05-13T02:29:45.618Z,75.75
2019-05-13T02:32:16.004Z,75.44
2019-05-13T02:34:46.425Z,75.29
2019-05-13T02:37:16.830Z,75.57
2019-05-13T02:39:47.170Z,76.25
2019-05-13T02:42:37.004Z,76.17
2019-05-13T02:45:26.740Z,76.05
2019-05-13T02:48:16.527Z,76.07
2019-05-13T02:51:06.270Z,75.55
2019-05-13T02:53:56.026Z,76.21
2019-05-13T02:56:26.371Z,77.14
2019-05-13T02:59:16.143Z,77.72
2019-05-13T03:01:46.509Z,77.54
2019-05-13T03:04:16.888Z,77.08
2019-05-13T03:06:47.317Z,76.11
2019-05-13T03:09:37.107Z,75.99
2019-05-13T03:12:26.876Z,75.84
2019-05-13T03:14:57.309Z,76.39
2019-05-13T03:20:24.115Z,77.35
2019-05-13T03:22:54.600Z,77.68
2019-05-13T03:25:25.145Z,77.93
2019-05-13T03:27:55.594Z,76.92
2019-05-13T03:30:26.465Z,76.91
2019-05-13T03:33:11.721Z,76.42
2019-05-13T03:35:55.842Z,76.06
2019-05-13T03:50:43.187Z,74.16
2019-05-13T03:53:17.625Z,72.67
2019-05-13T03:55:48.549Z,72.19
2019-05-13T04:01:22.411Z,73.05
2019-05-13T04:04:12.882Z,72.61
2019-05-13T04:06:43.266Z,72.15
2019-05-13T04:09:26.222Z,72.59
2019-05-13T04:11:56.708Z,71.94
2019-05-13T04:14:27.072Z,72.50
2019-05-13T04:16:57.528Z,70.90
2019-05-13T04:22:33.009Z,71.14
2019-05-13T04:25:13.194Z,71.52
2019-05-13T04:28:03.552Z,71.67
2019-05-13T04:30:46.368Z,71.37
2019-05-13T04:33:16.744Z,72.29
2019-05-13T04:36:06.521Z,72.73
2019-05-13T04:38:36.917Z,73.40
2019-05-13T04:41:07.308Z,73.74
2019-05-13T04:43:57.106Z,74.01
2019-05-13T04:46:27.459Z,73.68
2019-05-13T04:49:17.243Z,72.49
2019-05-13T04:51:47.608Z,71.72
2019-05-13T04:54:18.002Z,71.17
2019-05-13T04:56:48.339Z,70.60
2019-05-13T04:59:18.722Z,71.42
2019-05-13T05:05:33.712Z,72.14
2019-05-13T05:08:47.025Z,71.94
2019-05-13T05:11:58.757Z,72.13
2019-05-13T05:15:07.293Z,71.80
2019-05-13T05:24:29.074Z,69.22
2019-05-13T05:27:37.653Z,68.27
2019-05-13T05:30:46.246Z,68.88
2019-05-13T05:33:54.767Z,70.12
2019-05-13T05:45:42.415Z,69.86
2019-05-13T05:51:15.031Z,69.66
2019-05-13T06:05:57.458Z,70.12
2019-05-13T06:08:27.931Z,70.98
2019-05-13T06:10:58.319Z,71.75
2019-05-13T06:13:51.559Z,70.68
2019-05-13T06:16:32.136Z,71.78
2019-05-13T06:22:42.462Z,71.34
2019-05-13T06:25:23.834Z,69.94
2019-05-13T06:27:54.216Z,70.36
2019-05-13T06:30:24.565Z,69.87
2019-05-13T06:32:55.099Z,69.65
2019-05-13T06:35:25.642Z,69.15
2019-05-13T06:37:56.107Z,69.61
2019-05-13T06:40:26.498Z,69.08
2019-05-13T06:42:56.923Z,69.75
2019-05-13T06:45:27.292Z,69.43
2019-05-13T06:47:57.796Z,70.12
2019-05-13T06:50:28.222Z,70.81
2019-05-13T06:53:18.027Z,70.74
2019-05-13T06:55:48.411Z,70.60
2019-05-13T06:58:18.832Z,70.90
2019-05-13T07:01:11.399Z,69.87
2019-05-13T07:03:52.040Z,69.60
2019-05-13T07:06:22.481Z,69.39
2019-05-13T07:09:07.051Z,69.28
2019-05-13T07:11:37.472Z,68.64
2019-05-13T07:14:07.909Z,68.31
2019-05-13T07:16:38.300Z,68.02
2019-05-13T07:19:08.687Z,68.00
2019-05-13T07:21:41.619Z,67.14
2019-05-13T07:24:22.905Z,67.48
2019-05-13T07:26:53.356Z,66.67
2019-05-13T07:29:24.266Z,65.82
2019-05-13T07:32:06.786Z,66.18
2019-05-13T07:34:37.166Z,66.79
2019-05-13T07:37:07.558Z,66.21
2019-05-13T07:39:41.870Z,65.89
2019-05-13T07:42:31.357Z,66.81
2019-05-13T07:45:08.806Z,67.01
2019-05-13T07:48:01.256Z,66.31
2019-05-13T07:50:55.555Z,64.47
2019-05-13T07:53:26.047Z,64.63
2019-05-13T07:55:56.469Z,64.47
2019-05-13T07:58:26.824Z,65.05
2019-05-13T08:00:57.202Z,64.71
2019-05-13T08:03:46.961Z,64.01
2019-05-13T08:06:17.358Z,63.40
2019-05-13T08:09:09.222Z,62.02
2019-05-13T08:11:56.348Z,62.34
2019-05-13T08:14:32.402Z,61.80
2019-05-13T08:17:08.669Z,61.58
2019-05-13T08:19:41.368Z,60.77
2019-05-13T08:22:22.610Z,60.97
2019-05-13T08:24:54.489Z,60.34
2019-05-13T08:27:44.546Z,60.03
2019-05-13T08:30:18.056Z,59.71
2019-05-13T08:33:06.553Z,59.58
2019-05-13T08:35:58.709Z,59.35
2019-05-13T08:38:34.051Z,59.27
2019-05-13T08:41:04.443Z,58.98
2019-05-13T08:43:34.879Z,58.22
2019-05-13T08:46:24.942Z,57.83
2019-05-13T08:48:55.422Z,57.83
2019-05-13T08:51:25.862Z,57.09
2019-05-13T08:53:56.259Z,55.84
2019-05-13T08:56:26.640Z,55.00
2019-05-13T08:58:57.031Z,55.60
2019-05-13T09:01:27.428Z,55.99
2019-05-13T09:03:57.825Z,56.15
2019-05-13T09:06:47.602Z,55.95
2019-05-13T09:09:18.068Z,55.53
2019-05-13T09:11:51.588Z,55.55
2019-05-13T09:14:33.764Z,55.75
2019-05-13T09:17:04.199Z,56.02
2019-05-13T09:19:53.975Z,55.93
2019-05-13T09:22:24.419Z,53.47
2019-05-13T09:25:14.656Z,54.21
2019-05-13T09:27:45.016Z,53.55
2019-05-13T09:30:15.397Z,52.84
2019-05-13T09:32:45.792Z,52.40
2019-05-13T09:35:16.245Z,51.84
2019-05-13T09:37:46.631Z,51.61
2019-05-13T09:40:36.721Z,50.71
2019-05-13T09:43:26.503Z,50.32
2019-05-13T09:45:56.897Z,50.47
2019-05-13T09:48:27.365Z,50.32
2019-05-13T09:50:57.821Z,50.36
2019-05-13T09:53:28.194Z,50.36
2019-05-13T09:56:18.005Z,49.59
2019-05-13T09:58:48.439Z,49.01
2019-05-13T10:01:18.936Z,49.68
2019-05-13T10:04:08.763Z,48.63
2019-05-13T10:06:41.692Z,48.30
2019-05-13T10:09:32.729Z,48.72
2019-05-13T10:12:13.646Z,47.74
2019-05-13T10:14:44.043Z,48.21
2019-05-13T10:17:14.542Z,47.26
2019-05-13T10:19:45.099Z,48.06
2019-05-13T10:22:15.530Z,47.34
2019-05-13T10:24:46.553Z,48.01
2019-05-13T10:27:36.562Z,47.83
2019-05-13T10:33:12.407Z,46.84
2019-05-13T10:41:48.593Z,46.91
2019-05-13T10:44:19.181Z,46.97
2019-05-13T10:46:52.212Z,47.13
2019-05-13T10:49:27.340Z,46.70
2019-05-13T10:51:57.749Z,46.62
2019-05-13T10:54:28.152Z,47.10
2019-05-13T10:56:59.836Z,46.49
2019-05-13T10:59:52.474Z,47.32
2019-05-13T11:02:36.779Z,48.78
2019-05-13T11:05:07.331Z,48.91
2019-05-13T11:07:38.077Z,48.63
2019-05-13T11:10:08.713Z,48.07
2019-05-13T11:12:52.043Z,48.08
2019-05-13T11:15:22.774Z,48.05
2019-05-13T11:18:18.825Z,47.96
2019-05-13T11:20:56.206Z,47.51
2019-05-13T11:23:28.267Z,48.37
2019-05-13T11:25:58.653Z,47.53
2019-05-13T11:28:29.610Z,47.42
2019-05-13T11:31:12.546Z,47.73
2019-05-13T11:33:43.033Z,47.39
2019-05-13T11:36:33.700Z,47.73
2019-05-13T11:39:15.739Z,48.29
2019-05-13T11:41:46.293Z,48.81
2019-05-13T11:44:17.210Z,48.96
2019-05-13T11:47:02.349Z,48.97
2019-05-13T11:49:42.973Z,48.04
2019-05-13T11:52:32.739Z,48.11
2019-05-13T11:55:23.129Z,47.80
2019-05-13T11:57:53.611Z,46.99
2019-05-13T12:01:02.912Z,46.53
2019-05-13T12:03:33.580Z,45.60
2019-05-13T12:06:04.106Z,45.45
2019-05-13T12:08:34.595Z,44.88
2019-05-13T12:11:24.439Z,45.21
2019-05-13T12:13:56.520Z,46.33
2019-05-13T12:16:27.064Z,46.15
2019-05-13T12:18:57.558Z,46.47
2019-05-13T12:21:28.007Z,45.90
2019-05-13T12:23:58.596Z,46.12
2019-05-13T12:26:33.106Z,45.54
2019-05-13T12:29:18.523Z,45.59
2019-05-13T12:31:55.867Z,45.73
2019-05-13T12:34:26.311Z,46.13
2019-05-13T12:36:56.742Z,46.63
2019-05-13T12:39:27.181Z,46.37
2019-05-13T12:42:17.021Z,45.53
2019-05-13T12:45:10.074Z,45.51
2019-05-13T12:47:52.484Z,45.96
2019-05-13T12:50:33.498Z,46.34
2019-05-13T12:53:23.297Z,45.96
2019-05-13T12:55:57.299Z,46.41
2019-05-13T12:58:38.131Z,46.73
2019-05-13T13:01:08.526Z,46.50
2019-05-13T13:03:38.929Z,46.91
2019-05-13T13:06:27.246Z,46.86
2019-05-13T13:08:53.875Z,47.22
2019-05-13T13:11:24.269Z,47.44
2019-05-13T13:14:15.603Z,47.42
2019-05-13T13:16:54.019Z,48.01
2019-05-13T13:19:37.126Z,48.30
2019-05-13T13:22:08.181Z,48.48
2019-05-13T13:25:04.217Z,48.57
2019-05-13T13:28:03.976Z,49.07
2019-05-13T13:30:20.300Z,49.05
2019-05-13T13:32:57.866Z,49.08
2019-05-13T13:35:28.386Z,49.47
2019-05-13T13:38:18.315Z,49.28
2019-05-13T13:40:53.534Z,49.61
2019-05-13T13:43:37.006Z,49.71
2019-05-13T13:46:32.622Z,50.18
2019-05-13T13:48:55.708Z,49.87
2019-05-13T13:51:37.768Z,49.24
2019-05-13T13:54:08.200Z,48.41
2019-05-13T13:56:38.622Z,48.60
2019-05-13T13:59:09.161Z,48.75
2019-05-13T14:01:39.590Z,48.79
2019-05-13T14:04:15.933Z,49.45
2019-05-13T14:09:37.530Z,50.22
2019-05-13T14:12:08.016Z,50.10
2019-05-13T14:14:57.795Z,50.19
2019-05-13T14:17:28.228Z,50.43
2019-05-13T14:19:58.600Z,50.48
2019-05-13T14:22:29.087Z,50.71
2019-05-13T14:24:59.466Z,50.45
2019-05-13T14:27:49.271Z,50.97
2019-05-13T14:33:42.403Z,52.48
2019-05-13T14:36:23.727Z,52.26
2019-05-13T14:38:54.110Z,51.88
2019-05-13T14:41:43.859Z,51.89
2019-05-13T14:44:14.365Z,52.01
2019-05-13T14:46:47.894Z,52.02
2019-05-13T14:49:28.151Z,52.40
2019-05-13T14:51:58.552Z,51.89
2019-05-13T14:54:29.278Z,51.29
2019-05-13T14:57:14.878Z,51.12
2019-05-13T14:59:55.199Z,50.83
2019-05-13T15:02:25.669Z,50.79
2019-05-13T15:05:11.768Z,50.92
2019-05-13T15:07:52.977Z,50.61
2019-05-13T15:10:34.938Z,50.94
2019-05-13T15:13:05.414Z,50.95
2019-05-13T15:15:35.828Z,51.75
2019-05-13T15:18:06.192Z,51.75
2019-05-13T15:20:36.623Z,52.37
2019-05-13T15:23:07.122Z,51.95
2019-05-13T15:25:37.749Z,52.22
2019-05-13T15:28:27.578Z,51.31
2019-05-13T15:30:58.170Z,50.78
2019-05-13T15:33:28.558Z,49.97
2019-05-13T15:36:01.809Z,50.15
2019-05-13T15:38:52.271Z,49.98
2019-05-13T15:41:22.678Z,49.67
2019-05-13T15:43:53.100Z,49.51
2019-05-13T15:46:23.478Z,49.34
2019-05-13T15:49:13.241Z,48.64
2019-05-13T15:52:03.070Z,48.73
2019-05-13T15:54:33.451Z,48.46
2019-05-13T15:57:03.916Z,47.32
2019-05-13T15:59:34.379Z,48.37
2019-05-13T16:02:24.195Z,48.76
2019-05-13T16:05:14.149Z,48.91
2019-05-13T16:07:44.653Z,49.20
2019-05-13T16:10:36.076Z,49.84
2019-05-13T16:13:06.510Z,49.63
2019-05-13T16:15:56.292Z,49.31
2019-05-13T16:18:46.157Z,49.66
2019-05-13T16:21:16.609Z,49.46
2019-05-13T16:23:47.016Z,49.38
2019-05-13T16:26:36.766Z,49.40
2019-05-13T16:29:26.579Z,49.80
2019-05-13T16:31:57.036Z,50.38
2019-05-13T16:34:46.942Z,50.35
2019-05-13T16:37:17.428Z,50.80
2019-05-13T16:40:46.705Z,50.90
2019-05-13T16:43:17.123Z,51.03
2019-05-13T16:45:47.554Z,50.76
2019-05-13T16:48:17.974Z,50.20
2019-05-13T16:50:48.523Z,50.79
2019-05-13T16:53:22.404Z,51.33
2019-05-13T16:56:04.683Z,51.51
2019-05-13T16:58:35.126Z,51.63
2019-05-13T17:01:05.579Z,51.87
2019-05-13T17:03:35.966Z,52.07
2019-05-13T17:06:06.356Z,52.81
2019-05-13T17:08:36.935Z,52.63
2019-05-13T17:11:07.424Z,52.98
2019-05-13T17:13:57.245Z,53.16
2019-05-13T17:16:27.679Z,53.24
2019-05-13T17:18:58.181Z,53.58
2019-05-13T17:21:28.780Z,53.76
2019-05-13T17:24:01.486Z,54.12
2019-05-13T17:26:52.238Z,54.96
2019-05-13T17:29:33.338Z,55.60
2019-05-13T17:32:03.827Z,55.76
2019-05-13T17:34:34.317Z,56.06
2019-05-13T17:37:04.878Z,56.78
2019-05-13T17:39:35.354Z,56.73
2019-05-13T17:42:05.853Z,56.70
2019-05-13T17:44:38.138Z,56.85
2019-05-13T17:47:27.951Z,57.07
2019-05-13T17:50:17.767Z,57.34
2019-05-13T17:52:48.191Z,57.92
2019-05-13T17:55:18.710Z,57.85
2019-05-13T17:57:49.105Z,57.91
2019-05-13T18:00:21.557Z,58.20
2019-05-13T18:03:05.063Z,58.53
2019-05-13T18:05:35.479Z,58.53
2019-05-13T18:08:05.933Z,59.10
2019-05-13T18:10:55.754Z,59.44
2019-05-13T18:13:27.930Z,59.64
2019-05-13T18:15:58.372Z,60.14
2019-05-13T18:18:40.335Z,60.63
2019-05-13T18:21:13.114Z,61.01
2019-05-13T18:23:43.523Z,61.08
2019-05-13T18:26:16.166Z,61.46
2019-05-13T18:28:56.889Z,61.64
2019-05-13T18:31:27.473Z,61.80
2019-05-13T18:34:17.210Z,61.98
2019-05-13T18:36:47.715Z,62.08
2019-05-13T18:39:18.130Z,62.05
2019-05-13T18:41:48.591Z,62.20
2019-05-13T18:44:19.081Z,62.33
2019-05-13T18:46:52.177Z,62.45
2019-05-13T18:49:42.280Z,62.23
2019-05-13T18:52:24.004Z,62.24
2019-05-13T18:55:19.319Z,62.38
2019-05-13T18:58:11.474Z,61.98
2019-05-13T19:01:01.318Z,62.04
2019-05-13T19:03:43.495Z,62.05
2019-05-13T19:06:13.945Z,62.18
2019-05-13T19:08:44.397Z,62.07
2019-05-13T19:11:16.397Z,62.10
2019-05-13T19:13:46.846Z,61.62
2019-05-13T19:16:17.237Z,61.23
2019-05-13T19:18:47.670Z,61.76
2019-05-13T19:21:18.157Z,61.07
2019-05-13T19:23:48.650Z,61.09
2019-05-13T19:26:19.094Z,60.92
2019-05-13T19:28:55.889Z,60.84
2019-05-13T19:31:26.417Z,61.13
2019-05-13T19:33:56.868Z,60.66
2019-05-13T19:36:27.235Z,60.64
2019-05-13T19:38:57.631Z,60.38
2019-05-13T19:41:28.032Z,59.77
2019-05-13T19:43:58.482Z,59.57
2019-05-13T19:46:31.266Z,59.77
2019-05-13T19:49:29.639Z,58.45
2019-05-13T19:52:04.281Z,58.61
2019-05-13T19:54:34.657Z,59.26
2019-05-13T19:57:05.064Z,58.74
2019-05-13T19:59:35.448Z,58.73
2019-05-13T20:02:05.861Z,58.61
2019-05-13T20:04:36.376Z,58.24
2019-05-13T20:07:06.749Z,58.64
2019-05-13T20:09:37.230Z,58.14
2019-05-13T20:12:07.648Z,59.13
2019-05-13T20:14:38.084Z,59.43
2019-05-13T20:17:08.671Z,59.68
2019-05-13T20:19:47.625Z,59.53
2019-05-13T20:22:31.321Z,59.98
2019-05-13T20:25:13.646Z,59.53
2019-05-13T20:27:44.117Z,59.77
2019-05-13T20:30:14.701Z,59.81
2019-05-13T20:32:45.127Z,58.92
2019-05-13T20:35:15.808Z,58.39
2019-05-13T20:37:52.702Z,58.54
2019-05-13T20:40:23.146Z,58.03
2019-05-13T20:42:53.587Z,58.63
2019-05-13T20:45:24.100Z,58.41
2019-05-13T20:48:13.954Z,57.03
2019-05-13T20:50:44.373Z,58.06
2019-05-13T20:53:34.139Z,57.36
2019-05-13T20:56:04.513Z,57.28
2019-05-13T20:58:34.933Z,56.66
2019-05-13T21:01:24.798Z,56.57
2019-05-13T21:03:55.219Z,57.18
2019-05-13T21:06:25.652Z,57.41
2019-05-13T21:08:56.071Z,57.18
2019-05-13T21:11:26.565Z,57.05
2019-05-13T21:13:57.064Z,57.20
2019-05-13T21:16:27.597Z,57.25
2019-05-13T21:18:58.027Z,58.04
2019-05-13T21:21:28.429Z,58.01
2019-05-13T21:23:58.857Z,57.77
2019-05-13T21:26:31.354Z,58.13
2019-05-13T21:29:06.896Z,57.74
2019-05-13T21:31:56.669Z,57.84
2019-05-13T21:34:27.032Z,58.23
2019-05-13T21:36:57.435Z,57.66
2019-05-13T21:39:27.868Z,57.36
2019-05-13T21:42:17.655Z,57.17
2019-05-13T21:44:48.006Z,57.75
2019-05-13T21:47:18.426Z,58.13
2019-05-13T21:53:12.453Z,59.53
2019-05-13T21:56:02.589Z,60.05
2019-05-13T21:58:45.385Z,60.54
2019-05-13T22:01:15.843Z,61.19
2019-05-13T22:03:46.237Z,61.64
2019-05-13T22:06:16.601Z,61.71
2019-05-13T22:09:11.687Z,62.04
2019-05-13T22:11:48.147Z,62.28
2019-05-13T22:14:18.729Z,62.29
2019-05-13T22:16:49.180Z,62.29
2019-05-13T22:19:19.545Z,61.62
2019-05-13T22:21:51.540Z,61.20
2019-05-13T22:24:33.158Z,61.27
2019-05-13T22:27:03.523Z,61.20
2019-05-13T22:29:33.930Z,61.38
2019-05-13T22:32:04.297Z,60.93
2019-05-13T22:34:34.759Z,61.14
2019-05-13T22:37:05.167Z,61.25
2019-05-13T22:39:35.646Z,61.22
2019-05-13T22:42:06.040Z,61.46
2019-05-13T22:44:36.514Z,61.25
2019-05-13T22:47:26.280Z,61.51
2019-05-13T22:49:58.295Z,61.60
2019-05-13T22:52:31.104Z,61.69
2019-05-13T22:55:11.870Z,61.95
2019-05-13T22:58:01.669Z,62.10
2019-05-13T23:00:51.782Z,62.45
2019-05-13T23:03:33.954Z,62.32
2019-05-13T23:06:04.373Z,62.80
2019-05-13T23:08:34.720Z,62.67
2019-05-13T23:11:05.115Z,62.59
2019-05-13T23:14:06.426Z,62.55
2019-05-13T23:16:41.997Z,62.80
2019-05-13T23:19:22.203Z,62.90
2019-05-13T23:21:52.616Z,62.63
2019-05-13T23:24:42.354Z,62.61
2019-05-13T23:27:32.196Z,62.61
2019-05-13T23:30:02.599Z,63.13
2019-05-13T23:32:33.031Z,63.55
2019-05-13T23:35:03.372Z,64.14
2019-05-13T23:37:53.159Z,64.61
2019-05-13T23:40:42.908Z,65.00
2019-05-13T23:43:13.278Z,65.47
2019-05-13T23:45:43.633Z,65.83
2019-05-13T23:48:33.416Z,65.99
2019-05-13T23:51:23.203Z,66.18
2019-05-13T23:53:53.584Z,66.49
2019-05-13T23:56:23.964Z,66.16
2019-05-13T23:58:54.351Z,65.74
